sensor_id;sensor_type;location;lat;lon;timestamp;pressure;altitude;pressure_sealevel;temperature;humidity
20021;BME280;10171;42.694;23.318;2023-07-31T04:28:38;94739.97;;;21.57;nan
20021;BME280;10171;42.694;23.318;2023-07-31T04:31:04;94755.38;;;21.81;nan
20021;BME280;10171;42.694;23.318;2023-07-31T04:33:29;94746.09;;;21.64;nan
20021;BME280;10171;42.694;23.318;2023-07-31T04:35:55;94758.13;;;21.79;nan
20021;BME280;10171;42.694;23.318;2023-07-31T04:38:21;94756.28;;;21.88;nan
20021;BME280;10171;42.694;23.318;2023-07-31T04:40:46;94748.13;;;21.91;nan
20021;BME280;10171;42.694;23.318;2023-07-31T04:43:12;94748.22;;;21.97;nan
20021;BME280;10171;42.694;23.318;2023-07-31T04:45:38;94753.16;;;21.92;nan
20021;BME280;10171;42.694;23.318;2023-07-31T04:48:03;94746.94;;;21.79;nan
20021;BME280;10171;42.694;23.318;2023-07-31T04:50:29;94739.84;;;21.73;nan
20021;BME280;10171;42.694;23.318;2023-07-31T04:52:55;94741.47;;;21.74;nan
20021;BME280;10171;42.694;23.318;2023-07-31T04:55:21;94742.09;;;21.90;nan
20021;BME280;10171;42.694;23.318;2023-07-31T04:57:47;94750.72;;;22.05;nan
20021;BME280;10171;42.694;23.318;2023-07-31T05:00:12;94736.91;;;21.90;nan
20021;BME280;10171;42.694;23.318;2023-07-31T05:02:37;94745.97;;;21.94;nan
20021;BME280;10171;42.694;23.318;2023-07-31T05:05:03;94747.69;;;22.02;nan
20021;BME280;10171;42.694;23.318;2023-07-31T05:07:29;94746.81;;;22.24;nan
20021;BME280;10171;42.694;23.318;2023-07-31T05:09:54;94748.81;;;22.36;nan
20021;BME280;10171;42.694;23.318;2023-07-31T05:12:19;94751.22;;;22.52;nan
20021;BME280;10171;42.694;23.318;2023-07-31T05:14:45;94745.91;;;22.31;nan
20021;BME280;10171;42.694;23.318;2023-07-31T05:17:10;94747.28;;;22.42;nan
20021;BME280;10171;42.694;23.318;2023-07-31T05:19:36;94742.34;;;22.46;nan
20021;BME280;10171;42.694;23.318;2023-07-31T05:22:01;94728.44;;;22.40;nan
20021;BME280;10171;42.694;23.318;2023-07-31T05:24:26;94736.00;;;22.70;nan
20021;BME280;10171;42.694;23.318;2023-07-31T05:26:52;94737.81;;;22.69;nan
20021;BME280;10171;42.694;23.318;2023-07-31T05:29:17;94743.94;;;22.62;nan
20021;BME280;10171;42.694;23.318;2023-07-31T05:31:43;94744.41;;;22.51;nan
20021;BME280;10171;42.694;23.318;2023-07-31T05:34:08;94744.13;;;22.32;nan
20021;BME280;10171;42.694;23.318;2023-07-31T05:36:34;94740.78;;;22.09;nan
20021;BME280;10171;42.694;23.318;2023-07-31T05:38:59;94733.59;;;22.25;nan
20021;BME280;10171;42.694;23.318;2023-07-31T05:41:24;94727.34;;;22.48;nan
20021;BME280;10171;42.694;23.318;2023-07-31T05:43:50;94732.53;;;22.63;nan
20021;BME280;10171;42.694;23.318;2023-07-31T05:46:16;94743.59;;;22.50;nan
20021;BME280;10171;42.694;23.318;2023-07-31T05:48:43;94741.16;;;22.35;nan
20021;BME280;10171;42.694;23.318;2023-07-31T05:51:08;94732.63;;;22.55;nan
20021;BME280;10171;42.694;23.318;2023-07-31T05:53:34;94739.19;;;22.65;nan
20021;BME280;10171;42.694;23.318;2023-07-31T05:56:01;94731.63;;;22.70;nan
20021;BME280;10171;42.694;23.318;2023-07-31T05:58:26;94748.19;;;22.48;nan
20021;BME280;10171;42.694;23.318;2023-07-31T06:00:52;94747.16;;;22.35;nan
20021;BME280;10171;42.694;23.318;2023-07-31T06:03:17;94747.66;;;22.39;nan
20021;BME280;10171;42.694;23.318;2023-07-31T06:05:42;94750.69;;;22.42;nan
20021;BME280;10171;42.694;23.318;2023-07-31T06:08:08;94759.84;;;22.52;nan
20021;BME280;10171;42.694;23.318;2023-07-31T06:10:33;94754.44;;;22.54;nan
20021;BME280;10171;42.694;23.318;2023-07-31T06:13:00;94754.53;;;22.60;nan
20021;BME280;10171;42.694;23.318;2023-07-31T06:15:25;94751.75;;;22.62;nan
20021;BME280;10171;42.694;23.318;2023-07-31T06:17:50;94766.94;;;22.58;nan
20021;BME280;10171;42.694;23.318;2023-07-31T06:20:16;94757.78;;;22.62;nan
20021;BME280;10171;42.694;23.318;2023-07-31T06:22:41;94755.13;;;22.91;nan
20021;BME280;10171;42.694;23.318;2023-07-31T06:25:07;94762.25;;;23.18;nan
20021;BME280;10171;42.694;23.318;2023-07-31T06:27:32;94755.03;;;22.85;nan
20021;BME280;10171;42.694;23.318;2023-07-31T06:29:58;94751.91;;;22.75;nan
20021;BME280;10171;42.694;23.318;2023-07-31T06:32:23;94761.00;;;22.64;nan
20021;BME280;10171;42.694;23.318;2023-07-31T06:34:49;94766.63;;;22.68;nan
20021;BME280;10171;42.694;23.318;2023-07-31T06:37:14;94754.41;;;22.83;nan
20021;BME280;10171;42.694;23.318;2023-07-31T06:39:40;94736.09;;;22.76;nan
20021;BME280;10171;42.694;23.318;2023-07-31T06:42:05;94747.72;;;23.09;nan
20021;BME280;10171;42.694;23.318;2023-07-31T06:44:31;94750.59;;;23.14;nan
20021;BME280;10171;42.694;23.318;2023-07-31T06:46:56;94757.09;;;23.25;nan
20021;BME280;10171;42.694;23.318;2023-07-31T06:49:22;94737.34;;;23.16;nan
20021;BME280;10171;42.694;23.318;2023-07-31T06:51:47;94765.78;;;23.11;nan
20021;BME280;10171;42.694;23.318;2023-07-31T06:54:13;94761.09;;;23.06;nan
20021;BME280;10171;42.694;23.318;2023-07-31T06:56:38;94765.28;;;22.86;nan
20021;BME280;10171;42.694;23.318;2023-07-31T06:59:05;94764.66;;;22.84;nan
20021;BME280;10171;42.694;23.318;2023-07-31T07:01:30;94752.78;;;22.96;nan
20021;BME280;10171;42.694;23.318;2023-07-31T07:03:56;94755.97;;;23.13;nan
20021;BME280;10171;42.694;23.318;2023-07-31T07:06:22;94756.56;;;23.29;nan
20021;BME280;10171;42.694;23.318;2023-07-31T07:08:48;94756.06;;;23.40;nan
20021;BME280;10171;42.694;23.318;2023-07-31T07:11:13;94752.22;;;23.36;nan
20021;BME280;10171;42.694;23.318;2023-07-31T07:13:39;94747.91;;;23.29;nan
20021;BME280;10171;42.694;23.318;2023-07-31T07:16:04;94746.25;;;23.42;nan
20021;BME280;10171;42.694;23.318;2023-07-31T07:18:29;94751.47;;;23.42;nan
20021;BME280;10171;42.694;23.318;2023-07-31T07:20:55;94742.91;;;23.48;nan
20021;BME280;10171;42.694;23.318;2023-07-31T07:23:22;94746.66;;;23.46;nan
20021;BME280;10171;42.694;23.318;2023-07-31T07:25:47;94752.44;;;23.62;nan
20021;BME280;10171;42.694;23.318;2023-07-31T07:28:13;94743.94;;;23.54;nan
20021;BME280;10171;42.694;23.318;2023-07-31T07:30:39;94749.59;;;23.57;nan
20021;BME280;10171;42.694;23.318;2023-07-31T07:33:05;94737.84;;;23.68;nan
20021;BME280;10171;42.694;23.318;2023-07-31T07:35:33;94743.00;;;23.82;nan
20021;BME280;10171;42.694;23.318;2023-07-31T07:37:59;94740.41;;;23.82;nan
20021;BME280;10171;42.694;23.318;2023-07-31T07:40:25;94753.06;;;23.64;nan
20021;BME280;10171;42.694;23.318;2023-07-31T07:42:51;94752.97;;;23.78;nan
20021;BME280;10171;42.694;23.318;2023-07-31T07:45:16;94755.94;;;23.90;nan
20021;BME280;10171;42.694;23.318;2023-07-31T07:47:42;94752.19;;;23.99;nan
20021;BME280;10171;42.694;23.318;2023-07-31T07:50:08;94753.63;;;23.80;nan
20021;BME280;10171;42.694;23.318;2023-07-31T07:52:33;94758.09;;;23.86;nan
20021;BME280;10171;42.694;23.318;2023-07-31T07:54:59;94743.34;;;24.00;nan
20021;BME280;10171;42.694;23.318;2023-07-31T07:57:25;94764.78;;;23.95;nan
20021;BME280;10171;42.694;23.318;2023-07-31T07:59:51;94762.03;;;24.03;nan
20021;BME280;10171;42.694;23.318;2023-07-31T08:02:16;94761.78;;;24.26;nan
20021;BME280;10171;42.694;23.318;2023-07-31T08:04:42;94754.53;;;24.49;nan
20021;BME280;10171;42.694;23.318;2023-07-31T08:07:07;94759.66;;;24.70;nan
20021;BME280;10171;42.694;23.318;2023-07-31T08:09:33;94761.38;;;24.50;nan
20021;BME280;10171;42.694;23.318;2023-07-31T08:11:58;94768.88;;;24.38;nan
20021;BME280;10171;42.694;23.318;2023-07-31T08:14:27;94769.47;;;24.34;nan
20021;BME280;10171;42.694;23.318;2023-07-31T08:16:53;94768.56;;;24.48;nan
20021;BME280;10171;42.694;23.318;2023-07-31T08:19:18;94755.16;;;24.57;nan
20021;BME280;10171;42.694;23.318;2023-07-31T08:21:44;94755.09;;;24.85;nan
20021;BME280;10171;42.694;23.318;2023-07-31T08:24:09;94765.38;;;24.93;nan
20021;BME280;10171;42.694;23.318;2023-07-31T08:26:35;94766.22;;;25.00;nan
20021;BME280;10171;42.694;23.318;2023-07-31T08:29:00;94765.13;;;24.81;nan
20021;BME280;10171;42.694;23.318;2023-07-31T08:31:26;94759.50;;;24.84;nan
20021;BME280;10171;42.694;23.318;2023-07-31T08:33:52;94748.09;;;24.92;nan
20021;BME280;10171;42.694;23.318;2023-07-31T08:36:17;94745.69;;;24.97;nan
20021;BME280;10171;42.694;23.318;2023-07-31T08:38:43;94756.75;;;24.99;nan
20021;BME280;10171;42.694;23.318;2023-07-31T08:41:08;94759.59;;;25.04;nan
20021;BME280;10171;42.694;23.318;2023-07-31T08:43:35;94760.38;;;25.04;nan
20021;BME280;10171;42.694;23.318;2023-07-31T08:46:02;94755.88;;;24.79;nan
20021;BME280;10171;42.694;23.318;2023-07-31T08:48:29;94748.06;;;24.85;nan
20021;BME280;10171;42.694;23.318;2023-07-31T08:50:54;94750.94;;;25.03;nan
20021;BME280;10171;42.694;23.318;2023-07-31T08:53:20;94747.41;;;25.30;nan
20021;BME280;10171;42.694;23.318;2023-07-31T08:55:46;94754.69;;;25.34;nan
20021;BME280;10171;42.694;23.318;2023-07-31T08:58:13;94758.94;;;25.48;nan
20021;BME280;10171;42.694;23.318;2023-07-31T09:00:40;94747.25;;;25.57;nan
20021;BME280;10171;42.694;23.318;2023-07-31T09:03:13;94739.06;;;25.86;nan
20021;BME280;10171;42.694;23.318;2023-07-31T09:05:42;94751.34;;;25.92;nan
20021;BME280;10171;42.694;23.318;2023-07-31T09:08:09;94749.31;;;25.94;nan
20021;BME280;10171;42.694;23.318;2023-07-31T09:10:35;94744.25;;;25.80;nan
20021;BME280;10171;42.694;23.318;2023-07-31T09:13:01;94743.22;;;25.81;nan
20021;BME280;10171;42.694;23.318;2023-07-31T09:15:28;94745.88;;;26.13;nan
20021;BME280;10171;42.694;23.318;2023-07-31T09:18:01;94753.53;;;26.15;nan
20021;BME280;10171;42.694;23.318;2023-07-31T09:20:27;94737.41;;;26.11;nan
20021;BME280;10171;42.694;23.318;2023-07-31T09:22:52;94740.47;;;25.82;nan
20021;BME280;10171;42.694;23.318;2023-07-31T09:25:25;94735.44;;;25.87;nan
20021;BME280;10171;42.694;23.318;2023-07-31T09:28:01;94743.06;;;26.02;nan
20021;BME280;10171;42.694;23.318;2023-07-31T09:30:28;94727.75;;;26.05;nan
20021;BME280;10171;42.694;23.318;2023-07-31T09:33:05;94725.53;;;26.15;nan
20021;BME280;10171;42.694;23.318;2023-07-31T09:35:34;94726.53;;;26.14;nan
20021;BME280;10171;42.694;23.318;2023-07-31T09:38:11;94716.41;;;26.31;nan
20021;BME280;10171;42.694;23.318;2023-07-31T09:40:39;94720.84;;;26.43;nan
20021;BME280;10171;42.694;23.318;2023-07-31T09:43:06;94710.72;;;26.66;nan
20021;BME280;10171;42.694;23.318;2023-07-31T09:45:43;94711.63;;;26.84;nan
20021;BME280;10171;42.694;23.318;2023-07-31T09:48:10;94708.47;;;27.20;nan
20021;BME280;10171;42.694;23.318;2023-07-31T09:50:38;94710.91;;;27.15;nan
20021;BME280;10171;42.694;23.318;2023-07-31T09:53:04;94691.34;;;27.11;nan
20021;BME280;10171;42.694;23.318;2023-07-31T09:55:29;94701.09;;;27.35;nan
20021;BME280;10171;42.694;23.318;2023-07-31T09:57:57;94693.47;;;27.58;nan
20021;BME280;10171;42.694;23.318;2023-07-31T10:00:23;94702.53;;;27.31;nan
20021;BME280;10171;42.694;23.318;2023-07-31T10:02:50;94708.28;;;27.15;nan
20021;BME280;10171;42.694;23.318;2023-07-31T10:05:17;94703.59;;;27.23;nan
20021;BME280;10171;42.694;23.318;2023-07-31T10:07:54;94704.50;;;27.35;nan
20021;BME280;10171;42.694;23.318;2023-07-31T10:10:25;94689.84;;;27.28;nan
20021;BME280;10171;42.694;23.318;2023-07-31T10:12:52;94711.63;;;27.28;nan
20021;BME280;10171;42.694;23.318;2023-07-31T10:15:17;94713.69;;;27.51;nan
20021;BME280;10171;42.694;23.318;2023-07-31T10:17:43;94702.88;;;27.65;nan
20021;BME280;10171;42.694;23.318;2023-07-31T10:20:09;94705.56;;;27.90;nan
20021;BME280;10171;42.694;23.318;2023-07-31T10:22:36;94697.97;;;27.51;nan
20021;BME280;10171;42.694;23.318;2023-07-31T10:25:02;94699.44;;;27.40;nan
20021;BME280;10171;42.694;23.318;2023-07-31T10:27:28;94701.16;;;27.53;nan
20021;BME280;10171;42.694;23.318;2023-07-31T10:29:55;94699.66;;;27.70;nan
20021;BME280;10171;42.694;23.318;2023-07-31T10:32:22;94704.09;;;27.69;nan
20021;BME280;10171;42.694;23.318;2023-07-31T10:34:50;94689.31;;;27.75;nan
20021;BME280;10171;42.694;23.318;2023-07-31T10:39:56;94685.44;;;28.01;nan
20021;BME280;10171;42.694;23.318;2023-07-31T10:42:45;94682.09;;;28.12;nan
20021;BME280;10171;42.694;23.318;2023-07-31T10:45:12;94680.69;;;28.34;nan
20021;BME280;10171;42.694;23.318;2023-07-31T10:47:44;94682.78;;;28.62;nan
20021;BME280;10171;42.694;23.318;2023-07-31T10:50:21;94678.03;;;28.88;nan
20021;BME280;10171;42.694;23.318;2023-07-31T10:52:56;94679.75;;;29.12;nan
20021;BME280;10171;42.694;23.318;2023-07-31T10:55:40;94680.91;;;29.16;nan
20021;BME280;10171;42.694;23.318;2023-07-31T10:58:06;94678.63;;;28.90;nan
20021;BME280;10171;42.694;23.318;2023-07-31T11:00:33;94679.06;;;28.87;nan
20021;BME280;10171;42.694;23.318;2023-07-31T11:03:18;94668.56;;;28.51;nan
20021;BME280;10171;42.694;23.318;2023-07-31T11:06:02;94681.97;;;28.79;nan
20021;BME280;10171;42.694;23.318;2023-07-31T11:08:55;94671.78;;;29.01;nan
20021;BME280;10171;42.694;23.318;2023-07-31T11:11:20;94665.38;;;29.26;nan
20021;BME280;10171;42.694;23.318;2023-07-31T11:13:51;94661.72;;;29.38;nan
20021;BME280;10171;42.694;23.318;2023-07-31T11:16:21;94653.69;;;28.93;nan
20021;BME280;10171;42.694;23.318;2023-07-31T11:18:48;94657.97;;;29.05;nan
20021;BME280;10171;42.694;23.318;2023-07-31T11:21:15;94662.38;;;29.23;nan
20021;BME280;10171;42.694;23.318;2023-07-31T11:23:41;94645.75;;;29.51;nan
20021;BME280;10171;42.694;23.318;2023-07-31T11:26:07;94643.59;;;29.60;nan
20021;BME280;10171;42.694;23.318;2023-07-31T11:28:33;94661.13;;;29.25;nan
20021;BME280;10171;42.694;23.318;2023-07-31T11:31:00;94671.88;;;29.24;nan
20021;BME280;10171;42.694;23.318;2023-07-31T11:33:26;94663.28;;;28.69;nan
20021;BME280;10171;42.694;23.318;2023-07-31T11:35:51;94654.81;;;28.67;nan
20021;BME280;10171;42.694;23.318;2023-07-31T11:38:28;94657.34;;;28.92;nan
20021;BME280;10171;42.694;23.318;2023-07-31T11:40:57;94657.34;;;28.92;nan
20021;BME280;10171;42.694;23.318;2023-07-31T11:43:23;94662.56;;;28.62;nan
20021;BME280;10171;42.694;23.318;2023-07-31T11:45:55;94653.81;;;28.50;nan
20021;BME280;10171;42.694;23.318;2023-07-31T11:48:32;94650.84;;;28.94;nan
20021;BME280;10171;42.694;23.318;2023-07-31T11:51:03;94641.31;;;29.23;nan
20021;BME280;10171;42.694;23.318;2023-07-31T11:53:36;94643.47;;;29.14;nan
20021;BME280;10171;42.694;23.318;2023-07-31T11:56:03;94631.53;;;29.41;nan
20021;BME280;10171;42.694;23.318;2023-07-31T11:58:32;94634.00;;;29.77;nan
20021;BME280;10171;42.694;23.318;2023-07-31T12:00:59;94649.94;;;29.82;nan
20021;BME280;10171;42.694;23.318;2023-07-31T12:03:26;94648.75;;;29.55;nan
20021;BME280;10171;42.694;23.318;2023-07-31T12:05:53;94652.34;;;29.31;nan
20021;BME280;10171;42.694;23.318;2023-07-31T12:08:21;94647.59;;;29.51;nan
20021;BME280;10171;42.694;23.318;2023-07-31T12:10:50;94646.94;;;29.90;nan
20021;BME280;10171;42.694;23.318;2023-07-31T12:13:26;94630.47;;;30.06;nan
20021;BME280;10171;42.694;23.318;2023-07-31T12:15:59;94634.91;;;29.71;nan
20021;BME280;10171;42.694;23.318;2023-07-31T12:18:26;94637.66;;;29.64;nan
20021;BME280;10171;42.694;23.318;2023-07-31T12:20:59;94625.88;;;29.67;nan
20021;BME280;10171;42.694;23.318;2023-07-31T12:23:29;94632.75;;;29.68;nan
20021;BME280;10171;42.694;23.318;2023-07-31T12:28:30;94613.03;;;29.82;nan
20021;BME280;10171;42.694;23.318;2023-07-31T12:31:00;94624.28;;;30.12;nan
20021;BME280;10171;42.694;23.318;2023-07-31T12:33:34;94622.31;;;30.19;nan
20021;BME280;10171;42.694;23.318;2023-07-31T12:36:02;94626.53;;;30.43;nan
20021;BME280;10171;42.694;23.318;2023-07-31T12:38:28;94625.50;;;30.32;nan
20021;BME280;10171;42.694;23.318;2023-07-31T12:40:53;94617.41;;;29.88;nan
20021;BME280;10171;42.694;23.318;2023-07-31T12:43:19;94622.09;;;29.63;nan
20021;BME280;10171;42.694;23.318;2023-07-31T12:45:44;94618.56;;;29.39;nan
20021;BME280;10171;42.694;23.318;2023-07-31T12:48:10;94610.19;;;29.20;nan
20021;BME280;10171;42.694;23.318;2023-07-31T12:50:36;94613.66;;;28.91;nan
20021;BME280;10171;42.694;23.318;2023-07-31T12:53:02;94604.75;;;28.74;nan
20021;BME280;10171;42.694;23.318;2023-07-31T12:55:31;94613.72;;;28.55;nan
20021;BME280;10171;42.694;23.318;2023-07-31T12:57:56;94603.47;;;28.65;nan
20021;BME280;10171;42.694;23.318;2023-07-31T13:00:22;94604.91;;;29.08;nan
20021;BME280;10171;42.694;23.318;2023-07-31T13:02:48;94598.53;;;29.27;nan
20021;BME280;10171;42.694;23.318;2023-07-31T13:05:14;94588.88;;;29.50;nan
20021;BME280;10171;42.694;23.318;2023-07-31T13:07:40;94601.34;;;29.66;nan
20021;BME280;10171;42.694;23.318;2023-07-31T13:10:06;94598.25;;;29.69;nan
20021;BME280;10171;42.694;23.318;2023-07-31T13:12:32;94604.22;;;29.65;nan
20021;BME280;10171;42.694;23.318;2023-07-31T13:14:57;94602.28;;;29.20;nan
20021;BME280;10171;42.694;23.318;2023-07-31T13:17:23;94589.09;;;28.97;nan
20021;BME280;10171;42.694;23.318;2023-07-31T13:19:48;94593.00;;;29.06;nan
20021;BME280;10171;42.694;23.318;2023-07-31T13:22:14;94595.19;;;28.79;nan
20021;BME280;10171;42.694;23.318;2023-07-31T13:24:39;94600.19;;;28.69;nan
20021;BME280;10171;42.694;23.318;2023-07-31T13:27:04;94598.50;;;28.57;nan
20021;BME280;10171;42.694;23.318;2023-07-31T13:29:30;94598.91;;;28.42;nan
20021;BME280;10171;42.694;23.318;2023-07-31T13:31:55;94604.16;;;28.42;nan
20021;BME280;10171;42.694;23.318;2023-07-31T13:34:21;94595.63;;;28.76;nan
20021;BME280;10171;42.694;23.318;2023-07-31T13:36:46;94610.72;;;28.99;nan
20021;BME280;10171;42.694;23.318;2023-07-31T13:39:12;94603.34;;;29.30;nan
20021;BME280;10171;42.694;23.318;2023-07-31T13:41:37;94605.03;;;29.13;nan
20021;BME280;10171;42.694;23.318;2023-07-31T13:44:03;94612.00;;;29.08;nan
20021;BME280;10171;42.694;23.318;2023-07-31T13:46:28;94620.13;;;29.18;nan
20021;BME280;10171;42.694;23.318;2023-07-31T13:48:54;94615.06;;;28.93;nan
20021;BME280;10171;42.694;23.318;2023-07-31T13:51:21;94597.38;;;28.82;nan
20021;BME280;10171;42.694;23.318;2023-07-31T13:53:47;94597.44;;;28.76;nan
20021;BME280;10171;42.694;23.318;2023-07-31T13:56:12;94601.78;;;28.70;nan
20021;BME280;10171;42.694;23.318;2023-07-31T13:58:38;94604.81;;;28.85;nan
20021;BME280;10171;42.694;23.318;2023-07-31T14:01:04;94595.75;;;28.81;nan
20021;BME280;10171;42.694;23.318;2023-07-31T14:03:30;94607.22;;;28.87;nan
20021;BME280;10171;42.694;23.318;2023-07-31T14:05:55;94604.00;;;28.55;nan
20021;BME280;10171;42.694;23.318;2023-07-31T14:08:21;94606.25;;;28.52;nan
20021;BME280;10171;42.694;23.318;2023-07-31T14:10:47;94606.06;;;28.35;nan
20021;BME280;10171;42.694;23.318;2023-07-31T14:13:12;94598.19;;;28.65;nan
20021;BME280;10171;42.694;23.318;2023-07-31T14:15:41;94599.78;;;28.54;nan
20021;BME280;10171;42.694;23.318;2023-07-31T14:18:07;94599.22;;;28.64;nan
20021;BME280;10171;42.694;23.318;2023-07-31T14:20:32;94582.88;;;28.62;nan
20021;BME280;10171;42.694;23.318;2023-07-31T14:22:58;94595.38;;;28.66;nan
20021;BME280;10171;42.694;23.318;2023-07-31T14:25:24;94592.06;;;28.71;nan
20021;BME280;10171;42.694;23.318;2023-07-31T14:27:49;94582.94;;;28.73;nan
20021;BME280;10171;42.694;23.318;2023-07-31T14:30:15;94587.03;;;28.69;nan
20021;BME280;10171;42.694;23.318;2023-07-31T14:32:41;94588.97;;;28.74;nan
20021;BME280;10171;42.694;23.318;2023-07-31T14:35:07;94590.22;;;28.89;nan
20021;BME280;10171;42.694;23.318;2023-07-31T14:37:40;94594.84;;;29.05;nan
20021;BME280;10171;42.694;23.318;2023-07-31T14:40:07;94586.38;;;29.03;nan
20021;BME280;10171;42.694;23.318;2023-07-31T14:42:34;94588.56;;;29.06;nan
20021;BME280;10171;42.694;23.318;2023-07-31T14:44:59;94586.06;;;29.23;nan
20021;BME280;10171;42.694;23.318;2023-07-31T14:47:25;94594.59;;;29.47;nan
20021;BME280;10171;42.694;23.318;2023-07-31T14:49:50;94591.75;;;29.49;nan
20021;BME280;10171;42.694;23.318;2023-07-31T14:52:16;94582.31;;;29.30;nan
20021;BME280;10171;42.694;23.318;2023-07-31T14:54:41;94583.72;;;29.44;nan
20021;BME280;10171;42.694;23.318;2023-07-31T14:57:07;94593.47;;;29.55;nan
20021;BME280;10171;42.694;23.318;2023-07-31T14:59:32;94594.59;;;29.59;nan
20021;BME280;10171;42.694;23.318;2023-07-31T15:01:57;94599.06;;;29.70;nan
20021;BME280;10171;42.694;23.318;2023-07-31T15:04:23;94595.38;;;29.82;nan
20021;BME280;10171;42.694;23.318;2023-07-31T15:06:50;94606.66;;;30.01;nan
20021;BME280;10171;42.694;23.318;2023-07-31T15:09:15;94597.34;;;29.87;nan
20021;BME280;10171;42.694;23.318;2023-07-31T15:11:41;94598.84;;;29.83;nan
20021;BME280;10171;42.694;23.318;2023-07-31T15:14:06;94594.50;;;30.00;nan
20021;BME280;10171;42.694;23.318;2023-07-31T15:16:32;94593.53;;;29.94;nan
20021;BME280;10171;42.694;23.318;2023-07-31T15:18:57;94588.31;;;30.06;nan
20021;BME280;10171;42.694;23.318;2023-07-31T15:21:22;94602.72;;;29.92;nan
20021;BME280;10171;42.694;23.318;2023-07-31T15:23:48;94592.19;;;29.46;nan
20021;BME280;10171;42.694;23.318;2023-07-31T15:26:13;94586.78;;;28.71;nan
20021;BME280;10171;42.694;23.318;2023-07-31T15:28:39;94595.00;;;28.63;nan
20021;BME280;10171;42.694;23.318;2023-07-31T15:31:04;94603.44;;;28.53;nan
20021;BME280;10171;42.694;23.318;2023-07-31T15:33:30;94610.59;;;28.46;nan
20021;BME280;10171;42.694;23.318;2023-07-31T15:35:55;94605.63;;;28.38;nan
20021;BME280;10171;42.694;23.318;2023-07-31T15:38:24;94613.88;;;28.42;nan
20021;BME280;10171;42.694;23.318;2023-07-31T15:40:49;94610.28;;;28.18;nan
20021;BME280;10171;42.694;23.318;2023-07-31T15:43:19;94613.78;;;27.94;nan
20021;BME280;10171;42.694;23.318;2023-07-31T15:45:46;94602.88;;;27.73;nan
20021;BME280;10171;42.694;23.318;2023-07-31T15:48:11;94609.78;;;27.68;nan
20021;BME280;10171;42.694;23.318;2023-07-31T15:50:37;94611.63;;;27.43;nan
20021;BME280;10171;42.694;23.318;2023-07-31T15:53:02;94610.38;;;27.45;nan
20021;BME280;10171;42.694;23.318;2023-07-31T15:55:27;94608.75;;;27.44;nan
20021;BME280;10171;42.694;23.318;2023-07-31T15:57:53;94613.06;;;27.39;nan
20021;BME280;10171;42.694;23.318;2023-07-31T16:00:18;94612.84;;;27.40;nan
20021;BME280;10171;42.694;23.318;2023-07-31T16:02:44;94609.34;;;27.46;nan
20021;BME280;10171;42.694;23.318;2023-07-31T16:05:09;94616.88;;;27.43;nan
20021;BME280;10171;42.694;23.318;2023-07-31T16:07:35;94620.97;;;27.32;nan
20021;BME280;10171;42.694;23.318;2023-07-31T16:10:01;94613.09;;;27.01;nan
20021;BME280;10171;42.694;23.318;2023-07-31T16:12:26;94618.34;;;27.01;nan
20021;BME280;10171;42.694;23.318;2023-07-31T16:14:52;94625.78;;;27.11;nan
20021;BME280;10171;42.694;23.318;2023-07-31T16:17:18;94622.91;;;27.19;nan
20021;BME280;10171;42.694;23.318;2023-07-31T16:19:43;94624.34;;;27.15;nan
20021;BME280;10171;42.694;23.318;2023-07-31T16:22:09;94622.94;;;27.12;nan
20021;BME280;10171;42.694;23.318;2023-07-31T16:24:35;94634.69;;;27.10;nan
20021;BME280;10171;42.694;23.318;2023-07-31T16:27:01;94634.69;;;27.10;nan
20021;BME280;10171;42.694;23.318;2023-07-31T16:29:27;94633.72;;;26.98;nan
20021;BME280;10171;42.694;23.318;2023-07-31T16:31:52;94631.34;;;26.90;nan
20021;BME280;10171;42.694;23.318;2023-07-31T16:34:17;94634.13;;;26.95;nan
20021;BME280;10171;42.694;23.318;2023-07-31T16:36:43;94638.53;;;27.01;nan
20021;BME280;10171;42.694;23.318;2023-07-31T16:39:08;94643.00;;;26.94;nan
20021;BME280;10171;42.694;23.318;2023-07-31T16:41:34;94637.38;;;26.90;nan
20021;BME280;10171;42.694;23.318;2023-07-31T16:43:59;94646.84;;;26.91;nan
20021;BME280;10171;42.694;23.318;2023-07-31T16:46:24;94640.13;;;27.02;nan
20021;BME280;10171;42.694;23.318;2023-07-31T16:48:50;94641.78;;;26.96;nan
20021;BME280;10171;42.694;23.318;2023-07-31T16:51:15;94639.56;;;26.93;nan
20021;BME280;10171;42.694;23.318;2023-07-31T16:53:41;94633.56;;;26.86;nan
20021;BME280;10171;42.694;23.318;2023-07-31T16:56:06;94641.00;;;26.96;nan
20021;BME280;10171;42.694;23.318;2023-07-31T16:58:32;94654.41;;;26.75;nan
20021;BME280;10171;42.694;23.318;2023-07-31T17:00:59;94660.69;;;26.67;nan
20021;BME280;10171;42.694;23.318;2023-07-31T17:03:26;94660.84;;;26.79;nan
20021;BME280;10171;42.694;23.318;2023-07-31T17:05:52;94655.84;;;26.71;nan
20021;BME280;10171;42.694;23.318;2023-07-31T17:08:17;94666.25;;;26.84;nan
20021;BME280;10171;42.694;23.318;2023-07-31T17:10:42;94662.69;;;26.72;nan
20021;BME280;10171;42.694;23.318;2023-07-31T17:13:08;94662.13;;;26.63;nan
20021;BME280;10171;42.694;23.318;2023-07-31T17:15:34;94669.09;;;26.82;nan
20021;BME280;10171;42.694;23.318;2023-07-31T17:17:59;94665.19;;;26.91;nan
20021;BME280;10171;42.694;23.318;2023-07-31T17:20:26;94661.97;;;26.89;nan
20021;BME280;10171;42.694;23.318;2023-07-31T17:22:51;94676.16;;;26.82;nan
20021;BME280;10171;42.694;23.318;2023-07-31T17:25:17;94668.56;;;26.67;nan
20021;BME280;10171;42.694;23.318;2023-07-31T17:27:46;94676.41;;;26.67;nan
20021;BME280;10171;42.694;23.318;2023-07-31T17:30:12;94682.66;;;26.66;nan
20021;BME280;10171;42.694;23.318;2023-07-31T17:32:37;94693.50;;;26.83;nan
20021;BME280;10171;42.694;23.318;2023-07-31T17:35:03;94694.94;;;26.79;nan
20021;BME280;10171;42.694;23.318;2023-07-31T17:37:29;94684.16;;;26.50;nan
20021;BME280;10171;42.694;23.318;2023-07-31T17:39:54;94693.44;;;26.52;nan